createdAt,value
2022-11-21T00:00:52.054Z,7.20
2022-11-21T00:03:18.983Z,7.30
2022-11-21T00:05:47.880Z,7.30
2022-11-21T00:08:20.295Z,7.40
2022-11-21T00:10:47.643Z,7.40
2022-11-21T00:13:21.079Z,7.40
2022-11-21T00:15:48.035Z,7.50
2022-11-21T00:18:14.958Z,7.10
2022-11-21T00:20:42.729Z,6.90
2022-11-21T00:23:10.107Z,6.90
2022-11-21T00:25:37.835Z,7.10
2022-11-21T00:28:05.432Z,7.00
2022-11-21T00:30:32.302Z,7.10
2022-11-21T00:32:59.672Z,6.90
2022-11-21T00:35:26.674Z,6.60
2022-11-21T00:37:53.422Z,6.90
2022-11-21T00:40:20.259Z,6.90
2022-11-21T00:42:47.011Z,7.10
2022-11-21T00:45:13.709Z,7.00
2022-11-21T00:47:40.719Z,6.90
2022-11-21T00:50:07.720Z,6.80
2022-11-21T00:52:34.493Z,6.90
2022-11-21T00:55:01.262Z,7.10
2022-11-21T00:57:27.962Z,7.10
2022-11-21T00:59:54.733Z,7.10
2022-11-21T01:02:21.500Z,6.90
2022-11-21T01:04:48.200Z,6.80
2022-11-21T01:07:15.394Z,6.90
2022-11-21T01:09:42.178Z,7.00
2022-11-21T01:12:08.908Z,7.10
2022-11-21T01:14:35.674Z,7.20
2022-11-21T01:17:02.420Z,7.30
2022-11-21T01:19:29.133Z,7.30
2022-11-21T01:21:55.886Z,7.30
2022-11-21T01:24:22.621Z,7.30
2022-11-21T01:26:50.992Z,7.40
2022-11-21T01:29:17.750Z,7.20
2022-11-21T01:31:44.536Z,7.20
2022-11-21T01:34:11.495Z,7.00
2022-11-21T01:36:38.206Z,6.90
2022-11-21T01:39:06.796Z,6.50
2022-11-21T01:41:37.287Z,6.10
2022-11-21T01:44:14.999Z,5.90
2022-11-21T01:46:41.764Z,6.40
2022-11-21T01:49:14.083Z,6.50
2022-11-21T01:51:44.567Z,6.50
2022-11-21T01:54:46.301Z,6.60
2022-11-21T01:57:17.614Z,6.80
2022-11-21T01:59:56.298Z,7.00
2022-11-21T02:02:28.649Z,7.00
2022-11-21T02:04:56.648Z,7.20
2022-11-21T02:07:26.445Z,7.20
2022-11-21T02:10:00.221Z,7.10
2022-11-21T02:12:38.059Z,7.10
2022-11-21T02:15:05.153Z,7.10
2022-11-21T02:17:33.942Z,7.20
2022-11-21T02:20:12.322Z,7.20
2022-11-21T02:22:52.592Z,7.30
2022-11-21T02:25:22.547Z,7.30
2022-11-21T02:27:51.815Z,7.30
2022-11-21T02:30:19.180Z,7.40
2022-11-21T02:32:49.528Z,7.30
2022-11-21T02:35:18.499Z,7.40
2022-11-21T02:38:05.442Z,7.40
2022-11-21T02:40:42.524Z,7.60
2022-11-21T02:43:17.778Z,7.30
2022-11-21T02:45:46.353Z,7.00
2022-11-21T02:48:13.492Z,6.80
2022-11-21T02:50:43.211Z,6.70
2022-11-21T02:53:13.038Z,6.80
2022-11-21T02:55:39.888Z,6.60
2022-11-21T02:58:06.951Z,6.70
2022-11-21T03:00:35.851Z,6.50
2022-11-21T03:03:03.110Z,6.40
2022-11-21T03:05:30.337Z,6.20
2022-11-21T03:07:57.144Z,6.20
2022-11-21T03:10:23.836Z,6.20
2022-11-21T03:12:50.655Z,6.20
2022-11-21T03:15:17.567Z,6.30
2022-11-21T03:17:48.227Z,6.40
2022-11-21T03:20:15.394Z,6.30
2022-11-21T03:22:42.134Z,6.30
2022-11-21T03:25:09.273Z,6.30
2022-11-21T03:27:35.979Z,6.20
2022-11-21T03:30:02.763Z,6.10
2022-11-21T03:32:29.452Z,6.00
2022-11-21T03:34:56.156Z,6.10
2022-11-21T03:37:23.018Z,6.10
2022-11-21T03:39:49.715Z,6.10
2022-11-21T03:42:16.477Z,6.10
2022-11-21T03:44:43.226Z,5.90
2022-11-21T03:47:09.973Z,5.90
2022-11-21T03:49:36.662Z,5.80
2022-11-21T03:52:03.478Z,5.70
2022-11-21T03:54:30.446Z,5.60
2022-11-21T03:56:57.385Z,5.60
2022-11-21T03:59:24.078Z,5.60
2022-11-21T04:01:50.836Z,5.70
2022-11-21T04:04:17.961Z,5.70
2022-11-21T04:06:45.327Z,5.70
2022-11-21T04:09:12.061Z,5.60
2022-11-21T04:11:38.999Z,5.50
2022-11-21T04:14:05.698Z,5.40
2022-11-21T04:16:32.503Z,5.40
2022-11-21T04:18:59.234Z,5.40
2022-11-21T04:21:25.917Z,5.40
2022-11-21T04:23:52.614Z,5.40
2022-11-21T04:26:19.374Z,5.30
2022-11-21T04:28:46.118Z,5.20
2022-11-21T04:31:13.075Z,5.30
2022-11-21T04:33:40.132Z,5.40
2022-11-21T04:36:08.326Z,5.30
2022-11-21T04:38:35.356Z,5.20
2022-11-21T04:41:02.170Z,5.30
2022-11-21T04:43:28.912Z,5.30
2022-11-21T04:45:55.602Z,5.20
2022-11-21T04:48:22.533Z,5.20
2022-11-21T04:50:49.314Z,5.00
2022-11-21T04:53:16.027Z,4.80
2022-11-21T04:55:42.723Z,5.00
2022-11-21T04:58:09.516Z,5.00
2022-11-21T05:00:36.353Z,4.90
2022-11-21T05:03:05.298Z,4.80
2022-11-21T05:05:32.667Z,4.60
2022-11-21T05:08:00.337Z,4.50
2022-11-21T05:10:27.180Z,4.50
2022-11-21T05:13:17.018Z,4.40
2022-11-21T05:15:43.878Z,4.40
2022-11-21T05:18:10.668Z,4.30
2022-11-21T05:20:37.378Z,4.20
2022-11-21T05:23:04.468Z,4.20
2022-11-21T05:25:31.194Z,4.20
2022-11-21T05:27:57.956Z,4.40
2022-11-21T05:30:24.712Z,4.10
2022-11-21T05:32:51.448Z,4.00
2022-11-21T05:35:18.143Z,3.80
2022-11-21T05:37:44.895Z,3.90
2022-11-21T05:40:11.905Z,3.70
2022-11-21T05:43:01.475Z,3.70
2022-11-21T05:45:28.163Z,3.90
2022-11-21T05:47:54.906Z,3.90
2022-11-21T05:50:21.704Z,3.90
2022-11-21T05:52:48.457Z,4.50
2022-11-21T05:55:15.312Z,4.20
2022-11-21T05:57:41.992Z,4.00
2022-11-21T06:00:09.375Z,3.90
2022-11-21T06:02:54.786Z,3.80
2022-11-21T06:05:21.549Z,3.80
2022-11-21T06:07:48.323Z,3.90
2022-11-21T06:10:15.129Z,4.00
2022-11-21T06:12:41.832Z,3.90
2022-11-21T06:15:08.905Z,3.90
2022-11-21T06:17:35.625Z,4.10
2022-11-21T06:20:02.355Z,4.10
2022-11-21T06:22:29.097Z,4.00
2022-11-21T06:24:55.809Z,4.00
2022-11-21T06:27:22.607Z,4.10
2022-11-21T06:29:49.315Z,3.90
2022-11-21T06:32:16.223Z,3.90
2022-11-21T06:34:42.951Z,3.90
2022-11-21T06:37:09.632Z,4.30
2022-11-21T06:39:36.386Z,3.70
2022-11-21T06:42:03.110Z,3.80
2022-11-21T06:44:30.160Z,3.90
2022-11-21T06:46:57.083Z,3.90
2022-11-21T06:49:23.849Z,3.70
2022-11-21T06:51:50.607Z,3.70
2022-11-21T06:54:17.491Z,3.80
2022-11-21T06:56:44.467Z,4.10
2022-11-21T06:59:11.534Z,3.90
2022-11-21T07:01:38.414Z,3.90
2022-11-21T07:04:05.197Z,4.00
2022-11-21T07:06:31.942Z,4.00
2022-11-21T07:09:31.745Z,4.20
2022-11-21T07:11:45.417Z,4.30
2022-11-21T07:14:12.564Z,4.70
2022-11-21T07:16:40.318Z,4.60
2022-11-21T07:19:07.109Z,4.40
2022-11-21T07:21:33.914Z,4.40
2022-11-21T07:24:00.722Z,4.20
2022-11-21T07:26:27.495Z,4.20
2022-11-21T07:28:54.220Z,4.10
2022-11-21T07:31:20.955Z,4.70
2022-11-21T07:33:48.273Z,4.20
2022-11-21T07:36:15.141Z,4.30
2022-11-21T07:38:42.248Z,4.60
2022-11-21T07:41:10.152Z,4.90
2022-11-21T07:43:36.919Z,4.30
2022-11-21T07:46:03.951Z,4.30
2022-11-21T07:48:30.707Z,4.40
2022-11-21T07:50:57.449Z,4.90
2022-11-21T07:53:24.217Z,4.50
2022-11-21T07:55:51.041Z,4.70
2022-11-21T07:58:17.956Z,4.80
2022-11-21T08:00:44.786Z,4.60
2022-11-21T08:03:13.252Z,4.40
2022-11-21T08:05:41.930Z,4.70
2022-11-21T08:08:10.125Z,4.30
2022-11-21T08:10:44.900Z,4.40
2022-11-21T08:13:12.867Z,4.40
2022-11-21T08:15:40.361Z,4.50
2022-11-21T08:18:20.922Z,4.70
2022-11-21T08:20:47.727Z,4.60
2022-11-21T08:23:14.738Z,4.60
2022-11-21T08:25:43.253Z,4.60
2022-11-21T08:28:11.524Z,4.70
2022-11-21T08:30:39.364Z,4.80
2022-11-21T08:33:07.280Z,4.80
2022-11-21T08:35:38.102Z,4.70
2022-11-21T08:38:05.806Z,4.70
2022-11-21T08:40:33.010Z,5.20
2022-11-21T08:43:04.753Z,4.50
2022-11-21T08:45:32.665Z,5.10
2022-11-21T08:48:00.079Z,5.00
2022-11-21T08:50:28.169Z,5.00
2022-11-21T08:53:02.248Z,5.20
2022-11-21T08:55:29.836Z,5.20
2022-11-21T08:57:56.683Z,5.30
2022-11-21T09:00:23.652Z,5.10
2022-11-21T09:02:50.453Z,5.20
2022-11-21T09:05:17.250Z,5.40
2022-11-21T09:07:44.172Z,5.50
2022-11-21T09:10:11.166Z,5.50
2022-11-21T09:12:37.914Z,5.50
2022-11-21T09:15:23.926Z,5.50
2022-11-21T09:18:07.531Z,5.50
2022-11-21T09:20:40.262Z,5.50
2022-11-21T09:23:15.400Z,5.50
2022-11-21T09:25:42.853Z,5.60
2022-11-21T09:28:12.139Z,5.60
2022-11-21T09:30:39.790Z,5.60
2022-11-21T09:33:08.537Z,5.50
2022-11-21T09:35:35.460Z,5.60
2022-11-21T09:38:02.421Z,5.60
2022-11-21T09:40:31.127Z,5.50
2022-11-21T09:43:06.611Z,5.60
2022-11-21T09:45:36.846Z,5.80
2022-11-21T09:48:17.566Z,6.10
2022-11-21T09:51:14.161Z,6.10
2022-11-21T09:53:53.063Z,6.30
2022-11-21T09:56:23.524Z,6.30
2022-11-21T09:58:57.325Z,6.40
2022-11-21T10:01:24.179Z,6.50
2022-11-21T10:03:52.371Z,6.50
2022-11-21T10:07:14.574Z,6.50
2022-11-21T10:10:10.454Z,6.50
2022-11-21T10:13:10.842Z,6.50
2022-11-21T10:15:57.507Z,6.50
2022-11-21T10:18:45.483Z,7.30
2022-11-21T10:21:24.443Z,6.60
2022-11-21T10:23:57.078Z,6.80
2022-11-21T10:27:11.045Z,6.80
2022-11-21T10:29:59.254Z,7.00
2022-11-21T10:32:37.246Z,7.10
2022-11-21T10:35:20.571Z,7.10
2022-11-21T10:37:53.973Z,7.30
2022-11-21T10:40:42.368Z,7.20
2022-11-21T10:43:46.930Z,7.20
2022-11-21T10:46:13.721Z,7.40
2022-11-21T10:48:40.514Z,7.50
2022-11-21T10:51:13.511Z,7.50
2022-11-21T10:54:04.551Z,7.60
2022-11-21T10:56:34.747Z,7.60
2022-11-21T10:59:27.134Z,7.70
2022-11-21T11:02:19.542Z,7.50
2022-11-21T11:04:51.995Z,7.30
2022-11-21T11:07:28.279Z,7.30
2022-11-21T11:10:27.449Z,7.20
2022-11-21T11:13:38.716Z,7.20
2022-11-21T11:16:11.714Z,7.30
2022-11-21T11:18:47.870Z,7.40
2022-11-21T11:21:41.827Z,7.30
2022-11-21T11:24:11.239Z,7.40
2022-11-21T11:26:48.579Z,7.30
2022-11-21T11:29:22.626Z,7.30
2022-11-21T11:32:01.279Z,7.40
2022-11-21T11:34:41.023Z,7.40
2022-11-21T11:37:25.421Z,7.50
2022-11-21T11:40:07.237Z,7.60
2022-11-21T11:43:17.571Z,7.60
2022-11-21T11:46:41.516Z,7.50
2022-11-21T11:49:23.635Z,7.60
2022-11-21T11:51:57.035Z,7.70
2022-11-21T11:54:29.464Z,7.70
2022-11-21T11:56:57.357Z,7.70
2022-11-21T11:59:45.289Z,7.80
2022-11-21T12:02:23.698Z,7.70
2022-11-21T12:05:04.889Z,7.90
2022-11-21T12:10:58.110Z,7.80
2022-11-21T12:13:25.702Z,7.80
2022-11-21T12:15:59.940Z,7.80
2022-11-21T12:18:41.756Z,7.90
2022-11-21T12:21:21.043Z,8.00
2022-11-21T12:23:56.712Z,7.90
2022-11-21T12:26:26.276Z,7.90
2022-11-21T12:29:14.644Z,8.00
2022-11-21T12:32:08.857Z,8.10
2022-11-21T12:34:55.509Z,8.10
2022-11-21T12:37:47.021Z,8.00
2022-11-21T12:40:35.330Z,8.10
2022-11-21T12:43:20.158Z,8.20
2022-11-21T12:46:18.500Z,8.10
2022-11-21T12:49:26.148Z,8.20
2022-11-21T12:52:31.955Z,8.10
2022-11-21T12:55:10.758Z,8.10
2022-11-21T12:57:48.068Z,8.00
2022-11-21T13:00:25.876Z,8.10
2022-11-21T13:03:39.760Z,8.10
2022-11-21T13:06:29.183Z,8.10
2022-11-21T13:08:58.231Z,8.10
2022-11-21T13:11:59.868Z,8.10
2022-11-21T13:14:44.414Z,8.10
2022-11-21T13:17:33.492Z,8.10
2022-11-21T13:20:23.399Z,8.20
2022-11-21T13:22:59.028Z,8.20
2022-11-21T13:25:31.620Z,8.40
2022-11-21T13:28:30.253Z,8.40
2022-11-21T13:30:58.102Z,8.40
2022-11-21T13:33:39.524Z,8.50
2022-11-21T13:36:13.004Z,8.50
2022-11-21T13:38:52.849Z,8.60
2022-11-21T13:41:53.477Z,8.60
2022-11-21T13:44:32.430Z,8.70
2022-11-21T13:47:02.759Z,8.70
2022-11-21T13:49:50.841Z,8.70
2022-11-21T13:52:20.270Z,8.80
2022-11-21T13:55:02.699Z,8.70
2022-11-21T13:57:41.644Z,8.80
2022-11-21T14:00:20.605Z,8.70
2022-11-21T14:03:04.135Z,8.70
2022-11-21T14:06:01.694Z,8.70
2022-11-21T14:08:29.827Z,8.70
2022-11-21T14:10:58.363Z,8.80
2022-11-21T14:13:28.121Z,8.70
2022-11-21T14:15:57.910Z,8.70
2022-11-21T14:18:25.850Z,8.80
2022-11-21T14:20:57.382Z,8.80
2022-11-21T14:23:26.739Z,8.80
2022-11-21T14:26:06.013Z,8.70
2022-11-21T14:28:34.864Z,8.80
2022-11-21T14:31:08.198Z,8.80
2022-11-21T14:33:42.048Z,8.80
2022-11-21T14:36:22.346Z,8.80
2022-11-21T14:39:20.851Z,8.80
2022-11-21T14:41:40.314Z,8.80
2022-11-21T14:44:16.129Z,8.70
2022-11-21T14:46:44.685Z,8.80
2022-11-21T14:49:17.553Z,8.90
2022-11-21T14:52:01.489Z,9.00
2022-11-21T14:54:32.524Z,9.00
2022-11-21T14:57:07.693Z,8.80
2022-11-21T14:59:40.303Z,8.80
2022-11-21T15:02:17.225Z,8.80
2022-11-21T15:04:46.472Z,8.70
2022-11-21T15:07:42.100Z,8.90
2022-11-21T15:10:32.592Z,8.80
2022-11-21T15:13:08.581Z,8.60
2022-11-21T15:15:47.275Z,8.40
2022-11-21T15:18:28.448Z,8.40
2022-11-21T15:21:01.494Z,8.10
2022-11-21T15:23:30.786Z,8.20
2022-11-21T15:26:01.330Z,7.90
2022-11-21T15:28:30.034Z,7.90
2022-11-21T15:31:19.199Z,7.90
2022-11-21T15:34:27.279Z,7.70
2022-11-21T15:36:44.497Z,7.70
2022-11-21T15:39:19.707Z,7.60
2022-11-21T15:41:46.505Z,7.50
2022-11-21T15:44:13.182Z,7.50
2022-11-21T15:46:43.248Z,7.40
2022-11-21T15:49:32.496Z,7.50
2022-11-21T15:52:08.899Z,7.60
2022-11-21T15:54:36.208Z,7.50
2022-11-21T15:57:02.946Z,7.70
2022-11-21T15:59:29.922Z,7.50
2022-11-21T16:01:56.832Z,7.40
2022-11-21T16:04:25.975Z,7.30
2022-11-21T16:06:54.163Z,7.40
2022-11-21T16:09:20.937Z,7.30
2022-11-21T16:11:47.681Z,7.30
2022-11-21T16:14:17.072Z,7.30
2022-11-21T16:16:44.727Z,7.30
2022-11-21T16:19:12.389Z,7.30
2022-11-21T16:21:39.283Z,7.20
2022-11-21T16:24:06.145Z,7.20
2022-11-21T16:26:33.538Z,7.20
2022-11-21T16:29:01.309Z,7.20
2022-11-21T16:31:30.380Z,7.20
2022-11-21T16:33:58.507Z,7.40
2022-11-21T16:36:27.361Z,7.30
2022-11-21T16:38:54.661Z,7.10
2022-11-21T16:41:23.072Z,7.20
2022-11-21T16:43:55.041Z,7.40
2022-11-21T16:46:23.781Z,7.30
2022-11-21T16:49:01.537Z,7.20
2022-11-21T16:51:29.119Z,7.30
2022-11-21T16:53:57.575Z,7.20
2022-11-21T16:56:25.124Z,7.20
2022-11-21T16:58:51.979Z,7.30
2022-11-21T17:01:21.007Z,7.20
2022-11-21T17:03:48.788Z,7.30
2022-11-21T17:06:22.712Z,7.20
2022-11-21T17:08:49.863Z,7.20
2022-11-21T17:11:29.616Z,7.20
2022-11-21T17:13:59.933Z,7.20
2022-11-21T17:16:27.178Z,7.10
2022-11-21T17:18:58.159Z,7.10
2022-11-21T17:21:25.583Z,7.20
2022-11-21T17:23:53.128Z,7.30
2022-11-21T17:26:23.333Z,7.20
2022-11-21T17:28:57.641Z,7.20
2022-11-21T17:31:24.932Z,7.20
2022-11-21T17:33:52.065Z,7.30
2022-11-21T17:36:23.807Z,7.30
2022-11-21T17:38:51.793Z,7.30
2022-11-21T17:41:20.353Z,7.20
2022-11-21T17:43:48.423Z,7.10
2022-11-21T17:46:17.873Z,7.20
2022-11-21T17:48:52.896Z,7.30
2022-11-21T17:51:23.890Z,7.10
2022-11-21T17:53:51.615Z,7.30
2022-11-21T17:56:20.894Z,7.40
2022-11-21T17:58:47.848Z,7.60
2022-11-21T18:01:19.650Z,7.70
2022-11-21T18:03:48.006Z,7.70
2022-11-21T18:06:17.386Z,7.60
2022-11-21T18:08:46.363Z,7.60
2022-11-21T18:11:18.235Z,7.60
2022-11-21T18:13:45.522Z,7.70
2022-11-21T18:16:14.671Z,7.60
2022-11-21T18:18:41.541Z,7.60
2022-11-21T18:21:11.337Z,7.80
2022-11-21T18:23:40.710Z,7.90
2022-11-21T18:26:07.502Z,8.00
2022-11-21T18:28:35.625Z,8.30
2022-11-21T18:31:11.349Z,8.40
2022-11-21T18:33:39.012Z,8.60
2022-11-21T18:36:07.318Z,8.70
2022-11-21T18:38:58.311Z,9.00
2022-11-21T18:41:30.585Z,9.30
2022-11-21T18:44:01.435Z,9.50
2022-11-21T18:46:30.365Z,9.50
2022-11-21T18:49:04.710Z,9.80
2022-11-21T18:51:32.928Z,9.90
2022-11-21T18:54:10.265Z,10.00
2022-11-21T18:56:38.926Z,10.20
2022-11-21T18:59:06.651Z,10.10
2022-11-21T19:01:35.743Z,10.00
2022-11-21T19:04:02.989Z,10.10
2022-11-21T19:06:30.121Z,10.10
2022-11-21T19:08:58.235Z,10.00
2022-11-21T19:11:28.485Z,9.90
2022-11-21T19:13:56.446Z,10.00
2022-11-21T19:16:26.317Z,10.30
2022-11-21T19:21:43.935Z,10.30
2022-11-21T19:24:14.762Z,10.20
2022-11-21T19:26:42.457Z,10.00
2022-11-21T19:29:09.760Z,9.90
2022-11-21T19:31:44.773Z,9.50
2022-11-21T19:34:15.282Z,9.50
2022-11-21T19:36:42.467Z,9.50
2022-11-21T19:39:09.327Z,9.60
2022-11-21T19:41:36.149Z,9.60
2022-11-21T19:44:03.755Z,9.60
2022-11-21T19:46:36.907Z,9.70
2022-11-21T19:49:04.774Z,9.70
2022-11-21T19:51:38.605Z,9.60
2022-11-21T19:54:07.352Z,9.60
2022-11-21T19:56:34.476Z,8.90
2022-11-21T19:59:01.989Z,8.70
2022-11-21T20:01:30.553Z,8.40
2022-11-21T20:04:00.109Z,7.80
2022-11-21T20:06:30.821Z,7.70
2022-11-21T20:09:02.605Z,7.50
2022-11-21T20:11:31.102Z,7.60
2022-11-21T20:13:58.474Z,7.70
2022-11-21T20:16:25.199Z,7.50
2022-11-21T20:18:53.054Z,7.40
2022-11-21T20:21:20.158Z,7.50
2022-11-21T20:23:48.026Z,7.50
2022-11-21T20:26:16.720Z,7.30
2022-11-21T20:28:44.213Z,7.40
2022-11-21T20:31:15.910Z,7.60
2022-11-21T20:33:48.327Z,7.60
2022-11-21T20:36:19.267Z,7.60
2022-11-21T20:38:56.754Z,7.80
2022-11-21T20:41:32.396Z,7.80
2022-11-21T20:46:48.888Z,7.60
2022-11-21T20:49:16.481Z,7.70
2022-11-21T20:54:30.674Z,7.50
2022-11-21T20:56:57.772Z,7.50
2022-11-21T20:59:26.145Z,7.50
2022-11-21T21:04:43.881Z,7.40
2022-11-21T21:07:10.823Z,7.40
2022-11-21T21:09:37.790Z,7.40
2022-11-21T21:12:05.659Z,7.40
2022-11-21T21:14:32.566Z,7.50
2022-11-21T21:16:59.408Z,7.30
2022-11-21T21:19:26.135Z,7.50
2022-11-21T21:21:52.968Z,7.30
2022-11-21T21:24:19.854Z,7.40
2022-11-21T21:26:48.623Z,7.30
2022-11-21T21:29:19.069Z,7.20
2022-11-21T21:31:51.209Z,7.10
2022-11-21T21:34:20.405Z,7.20
2022-11-21T21:36:47.377Z,7.10
2022-11-21T21:39:29.063Z,7.20
2022-11-21T21:42:28.268Z,7.10
2022-11-21T21:44:59.622Z,7.30
2022-11-21T21:47:26.395Z,7.30
2022-11-21T21:49:53.196Z,7.30
2022-11-21T21:52:20.030Z,7.10
2022-11-21T21:54:46.907Z,7.10
2022-11-21T21:57:13.594Z,7.00
2022-11-21T21:59:40.290Z,7.00
2022-11-21T22:02:07.164Z,7.10
2022-11-21T22:04:33.973Z,7.20
2022-11-21T22:07:00.794Z,7.00
2022-11-21T22:09:27.949Z,7.00
2022-11-21T22:11:54.874Z,7.00
2022-11-21T22:14:21.718Z,7.10
2022-11-21T22:16:48.500Z,7.00
2022-11-21T22:19:15.693Z,7.00
2022-11-21T22:21:42.508Z,7.10
2022-11-21T22:24:24.940Z,6.90
2022-11-21T22:26:52.528Z,6.90
2022-11-21T22:29:19.311Z,7.00
2022-11-21T22:31:46.087Z,7.00
2022-11-21T22:34:16.140Z,6.70
2022-11-21T22:36:43.405Z,7.00
2022-11-21T22:39:10.262Z,7.00
2022-11-21T22:41:37.138Z,7.10
2022-11-21T22:44:04.234Z,7.20
2022-11-21T22:46:31.631Z,7.10
2022-11-21T22:48:59.162Z,7.10
2022-11-21T22:51:29.356Z,7.00
2022-11-21T22:53:56.738Z,6.90
2022-11-21T22:56:25.313Z,7.00
2022-11-21T22:58:52.934Z,6.50
2022-11-21T23:01:22.849Z,7.00
2022-11-21T23:03:49.725Z,6.90
2022-11-21T23:06:19.666Z,7.00
2022-11-21T23:08:46.545Z,7.00
2022-11-21T23:11:15.902Z,7.00
2022-11-21T23:13:44.333Z,7.00
2022-11-21T23:16:12.152Z,7.00
2022-11-21T23:18:39.883Z,7.00
2022-11-21T23:21:07.279Z,7.10
2022-11-21T23:23:34.122Z,7.10
2022-11-21T23:26:01.344Z,7.10
2022-11-21T23:28:28.630Z,7.00
2022-11-21T23:30:55.525Z,7.00
2022-11-21T23:33:22.770Z,7.00
2022-11-21T23:35:49.801Z,7.00
2022-11-21T23:38:17.815Z,6.90
2022-11-21T23:40:46.425Z,6.90
2022-11-21T23:43:14.151Z,6.90
2022-11-21T23:45:41.088Z,7.10
2022-11-21T23:48:08.279Z,7.00
2022-11-21T23:50:35.069Z,7.10
2022-11-21T23:53:02.069Z,7.00
2022-11-21T23:55:28.999Z,7.00
2022-11-21T23:57:55.780Z,7.00
